Terminal Aerodrome Forecast
Issued by NWS

Home | Current Version | Previous Version | Text Only | Print | Product List | Glossary On
Versions: 1 2 3 4 5 6 7 8 9 10 11 12 13 14 15 16 17 18 19 20 21 22 23 24
000
FTUS45 KGJT 180529
TAFASE
TAF
KASE 180529Z 1806/1906 20008KT P6SM FEW250
     FM181400 00000KT P6SM SKC
     FM181700 35006KT P6SM FEW100
     FM182000 31009KT P6SM SCT100
     FM190200 20006KT P6SM FEW100=

USA.gov is the U.S. government's official web portal to all federal, state and local government web resources and services.